createdAt,value
2018-12-21T00:01:01.431Z,99638.94
2018-12-21T00:03:34.853Z,99623.42
2018-12-21T00:06:08.630Z,99622.30
2018-12-21T00:08:42.718Z,99628.92
2018-12-21T00:11:16.755Z,99625.98
2018-12-21T00:13:50.385Z,99622.80
2018-12-21T00:16:23.331Z,99613.75
2018-12-21T00:18:56.537Z,99610.48
2018-12-21T00:21:29.788Z,99599.59
2018-12-21T00:24:03.356Z,99595.23
2018-12-21T00:26:36.148Z,99595.58
2018-12-21T00:29:08.774Z,99599.30
2018-12-21T00:31:47.184Z,99599.66
2018-12-21T00:34:25.214Z,99595.56
2018-12-21T00:37:03.565Z,99586.96
2018-12-21T00:39:42.079Z,99587.45
2018-12-21T00:42:34.159Z,99587.90
2018-12-21T00:45:14.897Z,99582.49
2018-12-21T00:47:49.358Z,99572.16
2018-12-21T00:53:33.247Z,99566.23
2018-12-21T00:56:06.622Z,99563.30
2018-12-21T00:58:42.289Z,99562.31
2018-12-21T01:01:14.886Z,99555.83
2018-12-21T01:03:48.053Z,99552.73
2018-12-21T01:06:23.479Z,99556.36
2018-12-21T01:08:57.361Z,99558.06
2018-12-21T01:11:30.924Z,99558.95
2018-12-21T01:14:03.963Z,99560.73
2018-12-21T01:16:36.653Z,99558.58
2018-12-21T01:19:11.069Z,99552.49
2018-12-21T01:21:50.694Z,99551.72
2018-12-21T01:24:23.456Z,99547.98
2018-12-21T01:26:55.964Z,99545.13
2018-12-21T01:29:29.040Z,99539.91
2018-12-21T01:32:01.544Z,99538.75
2018-12-21T01:34:34.157Z,99532.20
2018-12-21T01:37:07.353Z,99531.76
2018-12-21T01:39:41.757Z,99533.43
2018-12-21T01:42:15.127Z,99531.62
2018-12-21T01:44:48.324Z,99532.30
2018-12-21T01:47:20.940Z,99531.48
2018-12-21T01:49:53.907Z,99524.26
2018-12-21T01:52:28.955Z,99522.66
2018-12-21T01:55:01.704Z,99518.09
2018-12-21T01:57:34.263Z,99512.98
2018-12-21T02:00:08.960Z,99499.63
2018-12-21T02:02:41.605Z,99495.03
2018-12-21T02:05:15.636Z,99493.73
2018-12-21T02:07:49.639Z,99492.98
2018-12-21T02:10:22.689Z,99492.17
2018-12-21T02:12:56.029Z,99491.35
2018-12-21T02:15:31.471Z,99478.76
2018-12-21T02:18:04.071Z,99467.61
2018-12-21T02:20:36.754Z,99464.44
2018-12-21T02:23:11.060Z,99462.80
2018-12-21T02:25:44.624Z,99458.10
2018-12-21T02:28:17.187Z,99451.28
2018-12-21T02:30:52.948Z,99446.88
2018-12-21T02:33:26.211Z,99436.17
2018-12-21T02:35:59.732Z,99430.36
2018-12-21T02:38:34.756Z,99430.95
2018-12-21T02:41:07.364Z,99428.11
2018-12-21T02:43:48.029Z,99422.86
2018-12-21T02:46:20.551Z,99417.41
2018-12-21T02:48:54.101Z,99412.75
2018-12-21T02:51:28.078Z,99411.53
2018-12-21T02:54:00.632Z,99403.15
2018-12-21T02:56:33.926Z,99401.98
2018-12-21T02:59:07.477Z,99397.66
2018-12-21T03:01:40.057Z,99382.61
2018-12-21T03:04:12.642Z,99384.33
2018-12-21T03:06:45.684Z,99379.55
2018-12-21T03:09:18.201Z,99368.59
2018-12-21T03:11:50.799Z,99375.50
2018-12-21T03:14:24.837Z,99372.22
2018-12-21T03:16:57.633Z,99373.70
2018-12-21T03:19:31.415Z,99369.02
2018-12-21T03:22:14.248Z,99365.76
2018-12-21T03:24:47.612Z,99364.38
2018-12-21T03:27:20.360Z,99357.91
2018-12-21T03:29:54.352Z,99349.19
2018-12-21T03:32:27.086Z,99342.72
2018-12-21T03:35:00.682Z,99343.03
2018-12-21T03:37:33.899Z,99339.64
2018-12-21T03:40:07.619Z,99333.19
2018-12-21T03:42:41.560Z,99331.42
2018-12-21T03:45:17.226Z,99322.05
2018-12-21T03:47:49.763Z,99315.39
2018-12-21T03:50:22.445Z,99307.42
2018-12-21T03:52:55.495Z,99307.41
2018-12-21T03:55:27.996Z,99296.57
2018-12-21T03:58:01.907Z,99281.98
2018-12-21T04:00:36.113Z,99274.91
2018-12-21T04:03:09.727Z,99267.28
2018-12-21T04:05:42.244Z,99253.52
2018-12-21T04:08:15.285Z,99244.29
2018-12-21T04:10:47.821Z,99236.08
2018-12-21T04:13:20.443Z,99227.99
2018-12-21T04:15:55.625Z,99221.33
2018-12-21T04:18:28.256Z,99219.89
2018-12-21T04:21:02.431Z,99207.95
2018-12-21T04:23:35.398Z,99197.05
2018-12-21T04:26:08.235Z,99186.62
2018-12-21T04:28:42.579Z,99185.25
2018-12-21T04:31:15.457Z,99188.58
2018-12-21T04:33:48.847Z,99172.70
2018-12-21T04:36:22.591Z,99168.34
2018-12-21T04:38:56.357Z,99165.88
2018-12-21T04:41:29.570Z,99158.84
2018-12-21T04:44:02.892Z,99154.70
2018-12-21T04:46:35.818Z,99151.82
2018-12-21T04:49:09.589Z,99144.12
2018-12-21T04:51:42.188Z,99141.72
2018-12-21T04:54:15.476Z,99149.34
2018-12-21T04:56:48.404Z,99148.27
2018-12-21T04:59:21.726Z,99145.22
2018-12-21T05:01:56.806Z,99143.94
2018-12-21T05:04:29.499Z,99147.92
2018-12-21T05:07:02.222Z,99134.28
2018-12-21T05:09:36.141Z,99135.42
2018-12-21T05:12:08.789Z,99129.20
2018-12-21T05:14:41.939Z,99116.77
2018-12-21T05:17:16.139Z,99110.55
2018-12-21T05:19:49.258Z,99107.89
2018-12-21T05:22:21.971Z,99096.00
2018-12-21T05:24:54.823Z,99097.30
2018-12-21T05:27:27.428Z,99089.23
2018-12-21T05:30:00.047Z,99075.62
2018-12-21T05:32:34.071Z,99066.84
2018-12-21T05:35:10.514Z,99066.59
2018-12-21T05:37:44.527Z,99069.61
2018-12-21T05:40:17.125Z,99045.06
2018-12-21T05:42:50.089Z,99036.86
2018-12-21T05:45:22.624Z,99035.64
2018-12-21T05:47:56.217Z,99031.77
2018-12-21T05:50:28.827Z,99022.11
2018-12-21T05:53:03.289Z,98985.33
2018-12-21T05:55:36.002Z,98987.06
2018-12-21T05:58:08.793Z,98982.16
2018-12-21T06:00:43.707Z,98971.47
2018-12-21T06:03:16.312Z,98962.09
2018-12-21T06:05:49.035Z,98962.31
2018-12-21T06:08:23.101Z,98953.64
2018-12-21T06:10:55.768Z,98947.75
2018-12-21T06:13:28.668Z,98944.98
2018-12-21T06:16:01.562Z,98936.88
2018-12-21T06:18:34.205Z,98924.89
2018-12-21T06:21:06.940Z,98926.19
2018-12-21T06:23:40.575Z,98919.16
2018-12-21T06:26:14.829Z,98908.33
2018-12-21T06:28:47.963Z,98896.16
2018-12-21T06:31:23.386Z,98892.55
2018-12-21T06:33:55.995Z,98890.99
2018-12-21T06:36:28.592Z,98886.44
2018-12-21T06:39:04.750Z,98875.19
2018-12-21T06:41:40.115Z,98868.62
2018-12-21T06:44:13.739Z,98871.78
2018-12-21T06:46:48.501Z,98863.13
2018-12-21T06:49:22.161Z,98845.66
2018-12-21T06:51:54.899Z,98841.36
2018-12-21T06:54:30.533Z,98853.66
2018-12-21T06:57:03.108Z,98844.70
2018-12-21T06:59:35.667Z,98826.27
2018-12-21T07:02:09.344Z,98823.08
2018-12-21T07:04:41.863Z,98825.13
2018-12-21T07:07:16.396Z,98828.33
2018-12-21T07:09:55.110Z,98821.75
2018-12-21T07:12:33.556Z,98809.05
2018-12-21T07:15:08.867Z,98806.38
2018-12-21T07:17:42.202Z,98798.92
2018-12-21T07:20:15.168Z,98800.06
2018-12-21T07:22:47.974Z,98801.73
2018-12-21T07:25:20.666Z,98788.05
2018-12-21T07:27:53.893Z,98787.46
2018-12-21T07:30:27.410Z,98760.49
2018-12-21T07:33:00.204Z,98771.48
2018-12-21T07:35:33.676Z,98773.89
2018-12-21T07:38:06.669Z,98772.46
2018-12-21T07:40:39.744Z,98778.17
2018-12-21T07:43:13.235Z,98770.20
2018-12-21T07:45:50.828Z,98762.61
2018-12-21T07:48:28.218Z,98759.98
2018-12-21T07:51:05.141Z,98753.59
2018-12-21T07:53:38.201Z,98741.61
2018-12-21T07:56:12.721Z,98742.39
2018-12-21T07:58:45.720Z,98731.14
2018-12-21T08:01:20.252Z,98723.49
2018-12-21T08:03:53.692Z,98713.84
2018-12-21T08:06:30.040Z,98707.73
2018-12-21T08:09:04.328Z,98703.94
2018-12-21T08:11:38.845Z,98687.91
2018-12-21T08:14:12.699Z,98679.11
2018-12-21T08:16:45.545Z,98661.57
2018-12-21T08:19:19.187Z,98653.44
2018-12-21T08:21:53.340Z,98652.85
2018-12-21T08:24:26.661Z,98650.48
2018-12-21T08:27:01.716Z,98637.73
2018-12-21T08:29:34.825Z,98634.38
2018-12-21T08:32:07.765Z,98629.02
2018-12-21T08:34:47.206Z,98625.69
2018-12-21T08:37:20.085Z,98608.92
2018-12-21T08:39:53.760Z,98608.23
2018-12-21T08:42:26.713Z,98583.45
2018-12-21T08:44:59.740Z,98588.06
2018-12-21T08:47:34.690Z,98571.13
2018-12-21T08:50:10.991Z,98595.84
2018-12-21T08:52:43.792Z,98564.60
2018-12-21T08:55:17.280Z,98574.49
2018-12-21T08:57:51.240Z,98565.49
2018-12-21T09:00:25.999Z,98547.28
2018-12-21T09:02:59.614Z,98554.52
2018-12-21T09:05:35.081Z,98534.45
2018-12-21T09:08:09.639Z,98547.27
2018-12-21T09:10:44.779Z,98545.72
2018-12-21T09:13:21.888Z,98545.30
2018-12-21T09:15:56.561Z,98543.89
2018-12-21T09:18:31.510Z,98496.64
2018-12-21T09:21:05.665Z,98533.23
2018-12-21T09:23:39.372Z,98532.08
2018-12-21T09:26:14.920Z,98525.30
2018-12-21T09:28:47.805Z,98528.64
2018-12-21T09:31:21.734Z,98507.11
2018-12-21T09:33:56.970Z,98496.28
2018-12-21T09:36:34.388Z,98512.95
2018-12-21T09:39:12.425Z,98508.18
2018-12-21T09:41:49.336Z,98511.83
2018-12-21T09:44:23.235Z,98502.30
2018-12-21T09:46:59.067Z,98513.00
2018-12-21T09:49:37.110Z,98498.89
2018-12-21T09:52:10.176Z,98506.81
2018-12-21T09:54:44.184Z,98502.41
2018-12-21T09:57:19.561Z,98484.55
2018-12-21T09:59:52.688Z,98483.95
2018-12-21T10:02:35.529Z,98454.32
2018-12-21T10:05:15.457Z,98475.27
2018-12-21T10:07:48.548Z,98458.77
2018-12-21T10:10:24.072Z,98468.18
2018-12-21T10:12:58.641Z,98475.84
2018-12-21T10:15:31.726Z,98461.78
2018-12-21T10:18:06.022Z,98463.58
2018-12-21T10:20:39.730Z,98479.98
2018-12-21T10:23:13.559Z,98467.42
2018-12-21T10:25:47.136Z,98461.16
2018-12-21T10:28:23.399Z,98455.55
2018-12-21T10:31:00.038Z,98457.03
2018-12-21T10:33:37.911Z,98456.98
2018-12-21T10:36:11.168Z,98454.95
2018-12-21T10:38:44.780Z,98464.94
2018-12-21T10:41:18.564Z,98465.12
2018-12-21T10:43:57.851Z,98447.27
2018-12-21T10:46:31.910Z,98456.05
2018-12-21T10:49:05.134Z,98454.39
2018-12-21T10:51:38.057Z,98446.05
2018-12-21T10:54:14.993Z,98450.36
2018-12-21T10:56:50.933Z,98443.54
2018-12-21T10:59:25.035Z,98445.61
2018-12-21T11:01:58.985Z,98449.55
2018-12-21T11:04:32.036Z,98442.05
2018-12-21T11:07:07.119Z,98442.58
2018-12-21T11:09:41.629Z,98440.22
2018-12-21T11:12:16.133Z,98448.20
2018-12-21T11:14:49.903Z,98428.00
2018-12-21T11:17:43.915Z,98441.28
2018-12-21T11:20:17.986Z,98440.09
2018-12-21T11:22:51.019Z,98438.44
2018-12-21T11:25:25.006Z,98440.41
2018-12-21T11:27:58.276Z,98434.06
2018-12-21T11:30:31.231Z,98428.08
2018-12-21T11:33:04.781Z,98422.88
2018-12-21T11:35:37.882Z,98425.22
2018-12-21T11:38:11.812Z,98421.53
2018-12-21T11:40:46.498Z,98425.80
2018-12-21T11:43:20.333Z,98433.89
2018-12-21T11:45:56.860Z,98431.59
2018-12-21T11:48:34.752Z,98433.56
2018-12-21T11:51:07.892Z,98432.93
2018-12-21T11:53:44.079Z,98414.08
2018-12-21T11:56:17.312Z,98418.49
2018-12-21T11:58:51.768Z,98422.04
2018-12-21T12:01:25.744Z,98431.23
2018-12-21T12:03:59.123Z,98432.05
2018-12-21T12:06:32.317Z,98426.89
2018-12-21T12:09:07.732Z,98431.84
2018-12-21T12:11:43.293Z,98418.56
2018-12-21T12:14:18.942Z,98429.06
2018-12-21T12:16:54.047Z,98433.97
2018-12-21T12:19:28.227Z,98431.65
2018-12-21T12:22:01.752Z,98433.41
2018-12-21T12:24:35.525Z,98433.36
2018-12-21T12:27:10.017Z,98432.55
2018-12-21T12:29:46.375Z,98445.34
2018-12-21T12:32:20.928Z,98454.77
2018-12-21T12:34:55.528Z,98451.02
2018-12-21T12:37:29.616Z,98442.40
2018-12-21T12:40:06.897Z,98449.64
2018-12-21T12:42:42.122Z,98448.27
2018-12-21T12:45:17.847Z,98453.63
2018-12-21T12:48:00.123Z,98447.44
2018-12-21T12:50:35.308Z,98445.60
2018-12-21T12:53:10.854Z,98439.70
2018-12-21T12:55:47.092Z,98446.16
2018-12-21T12:58:20.815Z,98436.66
2018-12-21T13:00:54.711Z,98432.48
2018-12-21T13:03:31.641Z,98432.74
2018-12-21T13:06:07.505Z,98432.81
2018-12-21T13:08:40.579Z,98429.05
2018-12-21T13:11:16.037Z,98434.54
2018-12-21T13:13:49.228Z,98449.77
2018-12-21T13:16:23.270Z,98447.38
2018-12-21T13:18:57.955Z,98451.28
2018-12-21T13:21:30.987Z,98489.30
2018-12-21T13:24:04.064Z,98468.61
2018-12-21T13:26:38.958Z,98468.36
2018-12-21T13:29:12.918Z,98475.67
2018-12-21T13:31:46.823Z,98472.43
2018-12-21T13:34:21.244Z,98486.36
2018-12-21T13:37:16.138Z,98506.58
2018-12-21T13:39:51.003Z,98522.37
2018-12-21T13:42:29.180Z,98505.59
2018-12-21T13:45:04.678Z,98498.38
2018-12-21T13:47:42.575Z,98511.41
2018-12-21T13:50:17.997Z,98534.10
2018-12-21T13:52:54.394Z,98529.48
2018-12-21T13:55:29.043Z,98523.17
2018-12-21T13:58:02.036Z,98533.17
2018-12-21T14:00:36.693Z,98532.87
2018-12-21T14:03:10.313Z,98545.98
2018-12-21T14:05:45.548Z,98545.36
2018-12-21T14:08:19.250Z,98548.48
2018-12-21T14:10:55.495Z,98560.08
2018-12-21T14:13:28.687Z,98577.04
2018-12-21T14:16:06.121Z,98559.80
2018-12-21T14:18:39.557Z,98563.52
2018-12-21T14:21:16.948Z,98575.05
2018-12-21T14:23:50.437Z,98564.78
2018-12-21T14:26:26.406Z,98612.31
2018-12-21T14:29:04.469Z,98596.73
2018-12-21T14:31:42.557Z,98589.73
2018-12-21T14:34:22.560Z,98588.35
2018-12-21T14:36:59.903Z,98583.25
2018-12-21T14:39:35.919Z,98612.16
2018-12-21T14:42:12.351Z,98603.88
2018-12-21T14:44:47.249Z,98614.16
2018-12-21T14:47:24.276Z,98612.66
2018-12-21T14:49:59.177Z,98629.25
2018-12-21T14:52:33.490Z,98617.99
2018-12-21T14:55:08.862Z,98625.77
2018-12-21T14:57:52.453Z,98621.39
2018-12-21T15:00:31.521Z,98624.33
2018-12-21T15:03:06.012Z,98628.30
2018-12-21T15:05:41.642Z,98631.19
2018-12-21T15:08:16.587Z,98641.52
2018-12-21T15:10:50.950Z,98654.48
2018-12-21T15:13:24.410Z,98665.80
2018-12-21T15:15:57.304Z,98667.11
2018-12-21T15:18:56.962Z,98675.14
2018-12-21T15:21:45.647Z,98695.39
2018-12-21T15:24:19.255Z,98677.53
2018-12-21T15:26:55.632Z,98672.47
2018-12-21T15:29:31.508Z,98673.34
2018-12-21T15:32:07.464Z,98694.41
2018-12-21T15:34:41.922Z,98689.75
2018-12-21T15:37:15.131Z,98655.55
2018-12-21T15:39:48.346Z,98687.35
2018-12-21T15:42:24.543Z,98693.76
2018-12-21T15:44:58.540Z,98695.09
2018-12-21T15:47:31.439Z,98697.28
2018-12-21T15:50:11.442Z,98688.08
2018-12-21T15:52:44.604Z,98705.56
2018-12-21T15:55:18.698Z,98712.63
2018-12-21T15:58:02.558Z,98714.73
2018-12-21T16:00:38.838Z,98723.84
2018-12-21T16:03:11.793Z,98735.80
2018-12-21T16:05:46.911Z,98725.73
2018-12-21T16:08:23.546Z,98730.08
2018-12-21T16:10:57.142Z,98729.19
2018-12-21T16:13:36.031Z,98737.36
2018-12-21T16:16:10.239Z,98745.40
2018-12-21T16:18:43.334Z,98724.30
2018-12-21T16:21:18.130Z,98740.60
2018-12-21T16:23:53.861Z,98756.55
2018-12-21T16:26:27.947Z,98763.38
2018-12-21T16:29:01.372Z,98763.80
2018-12-21T16:31:36.848Z,98762.30
2018-12-21T16:34:11.568Z,98757.77
2018-12-21T16:36:47.441Z,98763.45
2018-12-21T16:39:21.810Z,98772.00
2018-12-21T16:41:56.725Z,98780.62
2018-12-21T16:44:34.511Z,98799.65
2018-12-21T16:47:10.690Z,98791.20
2018-12-21T16:49:46.039Z,98788.51
2018-12-21T16:52:19.379Z,98777.59
2018-12-21T16:54:54.444Z,98829.86
2018-12-21T16:57:28.455Z,98812.09
2018-12-21T17:00:03.522Z,98809.08
2018-12-21T17:02:37.299Z,98821.20
2018-12-21T17:05:11.012Z,98813.81
2018-12-21T17:07:43.877Z,98831.81
2018-12-21T17:10:23.402Z,98814.73
2018-12-21T17:12:57.455Z,98831.05
2018-12-21T17:15:31.999Z,98834.55
2018-12-21T17:18:09.796Z,98829.09
2018-12-21T17:20:43.435Z,98864.52
2018-12-21T17:23:18.404Z,98866.39
2018-12-21T17:25:55.666Z,98858.86
2018-12-21T17:28:30.101Z,98851.66
2018-12-21T17:31:09.418Z,98858.65
2018-12-21T17:33:42.781Z,98841.58
2018-12-21T17:36:18.960Z,98861.44
2018-12-21T17:38:52.064Z,98868.72
2018-12-21T17:41:29.577Z,98886.02
2018-12-21T17:44:03.595Z,98872.27
2018-12-21T17:46:45.166Z,98875.69
2018-12-21T17:49:20.331Z,98875.83
2018-12-21T17:52:03.692Z,98890.48
2018-12-21T17:54:56.963Z,98889.88
2018-12-21T17:57:33.392Z,98902.42
2018-12-21T18:00:20.871Z,98898.47
2018-12-21T18:02:59.312Z,98909.84
2018-12-21T18:05:41.534Z,98915.21
2018-12-21T18:08:21.101Z,98906.55
2018-12-21T18:11:02.532Z,98915.89
2018-12-21T18:13:39.644Z,98927.63
2018-12-21T18:16:15.151Z,98924.03
2018-12-21T18:18:52.845Z,98944.52
2018-12-21T18:21:35.266Z,98930.16
2018-12-21T18:24:09.217Z,98940.06
2018-12-21T18:26:46.969Z,98941.30
2018-12-21T18:29:33.675Z,98961.72
2018-12-21T18:32:38.684Z,98924.36
2018-12-21T18:35:19.642Z,98955.73
2018-12-21T18:38:14.061Z,98961.59
2018-12-21T18:40:55.155Z,98966.66
2018-12-21T18:43:42.809Z,98972.36
2018-12-21T18:46:24.721Z,98985.05
2018-12-21T18:49:00.607Z,98987.70
2018-12-21T18:51:37.188Z,98999.63
2018-12-21T18:54:10.331Z,99006.33
2018-12-21T18:57:16.075Z,99000.03
2018-12-21T18:59:49.097Z,99014.84
2018-12-21T19:02:24.388Z,99020.97
2018-12-21T19:04:57.899Z,99018.71
2018-12-21T19:07:31.651Z,99032.59
2018-12-21T19:10:10.484Z,99044.06
2018-12-21T19:12:47.626Z,99031.55
2018-12-21T19:15:23.365Z,99026.59
2018-12-21T19:18:01.572Z,99038.21
2018-12-21T19:20:34.832Z,99045.37
2018-12-21T19:23:09.838Z,99043.31
2018-12-21T19:25:44.880Z,99028.56
2018-12-21T19:28:18.709Z,99038.31
2018-12-21T19:30:51.878Z,99035.78
2018-12-21T19:33:30.768Z,99038.88
2018-12-21T19:36:04.679Z,99050.10
2018-12-21T19:38:38.549Z,99044.91
2018-12-21T19:41:21.220Z,99049.20
2018-12-21T19:43:55.000Z,99054.23
2018-12-21T19:46:31.392Z,99052.33
2018-12-21T19:49:06.314Z,99055.93
2018-12-21T19:51:41.831Z,99061.19
2018-12-21T19:54:22.879Z,99052.12
2018-12-21T19:57:13.826Z,99060.89
2018-12-21T19:59:48.828Z,99074.17
2018-12-21T20:02:23.253Z,99062.28
2018-12-21T20:04:58.524Z,99116.64
2018-12-21T20:07:33.217Z,99072.67
2018-12-21T20:10:08.732Z,99073.23
2018-12-21T20:12:47.878Z,99080.13
2018-12-21T20:15:43.782Z,99074.61
2018-12-21T20:18:47.616Z,99088.05
2018-12-21T20:21:26.426Z,99100.95
2018-12-21T20:24:03.801Z,99086.99
2018-12-21T20:26:44.653Z,99092.95
2018-12-21T20:29:41.480Z,99092.08
2018-12-21T20:32:17.581Z,99091.97
2018-12-21T20:34:55.175Z,99098.19
2018-12-21T20:37:31.181Z,99100.45
2018-12-21T20:40:13.021Z,99098.19
2018-12-21T20:42:46.468Z,99109.83
2018-12-21T20:45:20.840Z,99104.38
2018-12-21T20:47:56.243Z,99109.97
2018-12-21T20:50:31.685Z,99122.88
2018-12-21T20:53:06.446Z,99120.64
2018-12-21T20:55:40.553Z,99122.42
2018-12-21T20:58:56.664Z,99111.78
2018-12-21T21:01:30.476Z,99115.70
2018-12-21T21:04:04.854Z,99121.34
2018-12-21T21:06:40.312Z,99132.98
2018-12-21T21:09:14.748Z,99129.16
2018-12-21T21:11:55.226Z,99135.13
2018-12-21T21:14:30.496Z,99136.76
2018-12-21T21:17:04.816Z,99148.01
2018-12-21T21:19:45.984Z,99142.77
2018-12-21T21:22:20.644Z,99150.52
2018-12-21T21:24:53.543Z,99143.38
2018-12-21T21:27:32.339Z,99141.19
2018-12-21T21:30:18.579Z,99145.67
2018-12-21T21:32:52.434Z,99149.93
2018-12-21T21:35:39.796Z,99142.53
2018-12-21T21:38:14.734Z,99154.77
2018-12-21T21:40:56.734Z,99159.50
2018-12-21T21:43:33.349Z,99165.53
2018-12-21T21:46:08.724Z,99163.80
2018-12-21T21:48:43.478Z,99160.31
2018-12-21T21:51:16.329Z,99164.49
2018-12-21T21:53:49.234Z,99160.03
2018-12-21T21:56:22.542Z,99176.91
2018-12-21T21:58:56.289Z,99170.45
2018-12-21T22:01:31.227Z,99184.66
2018-12-21T22:04:05.434Z,99191.34
2018-12-21T22:06:38.444Z,99194.34
2018-12-21T22:09:11.758Z,99192.27
2018-12-21T22:11:44.894Z,99204.86
2018-12-21T22:14:17.905Z,99201.86
2018-12-21T22:16:51.426Z,99200.98
2018-12-21T22:19:25.127Z,99192.12
2018-12-21T22:22:00.990Z,99197.00
2018-12-21T22:24:36.699Z,99198.14
2018-12-21T22:27:11.234Z,99204.91
2018-12-21T22:29:44.750Z,99197.59
2018-12-21T22:32:19.168Z,99195.89
2018-12-21T22:34:56.941Z,99191.75
2018-12-21T22:37:31.058Z,99201.66
2018-12-21T22:40:08.808Z,99198.58
2018-12-21T22:42:43.611Z,99196.70
2018-12-21T22:45:21.336Z,99210.78
2018-12-21T22:47:58.787Z,99208.22
2018-12-21T22:50:34.391Z,99208.28
2018-12-21T22:53:10.728Z,99212.73
2018-12-21T22:55:44.531Z,99212.64
2018-12-21T22:58:19.728Z,99210.69
2018-12-21T23:00:56.473Z,99213.90
2018-12-21T23:03:30.049Z,99216.75
2018-12-21T23:06:03.637Z,99217.14
2018-12-21T23:08:41.389Z,99218.10
2018-12-21T23:11:29.922Z,99220.68
2018-12-21T23:14:10.888Z,99221.05
2018-12-21T23:16:46.699Z,99222.77
2018-12-21T23:19:22.720Z,99225.94
2018-12-21T23:21:57.962Z,99229.03
2018-12-21T23:24:31.693Z,99229.73
2018-12-21T23:27:05.842Z,99233.86
2018-12-21T23:29:44.821Z,99232.89
2018-12-21T23:32:17.869Z,99226.14
2018-12-21T23:34:54.377Z,99233.30
2018-12-21T23:37:27.897Z,99228.03
2018-12-21T23:40:02.004Z,99228.06
2018-12-21T23:42:35.138Z,99230.92
2018-12-21T23:45:09.733Z,99222.47
2018-12-21T23:47:45.673Z,99221.62
2018-12-21T23:50:18.609Z,99219.16
2018-12-21T23:52:56.348Z,99218.56
2018-12-21T23:55:29.809Z,99213.23
2018-12-21T23:58:13.430Z,99221.48
